»·PEaware :: N6RY KBJC-KLBF

N6RY :: KBJC-KLBF

FLIGHT INFORMATION

Flight Status: Arrived
Operator: Privately registered:
United States
More flights under this callsign
Pilot: Rick S. (2164)
Aircraft: Unknown
(E35L)
More flights by this aircraft type
Origin: KBJC Jeffco
United States
Destination: KLBF North Platte Regl-Bird
United States
More flights between these airports :: More routes between these airports
Route: EEONS6 WYNDM HCT CINIV MUYDO
File this flight plan on PilotEdge
Remarks:
Altitude:
(Current/Filed)
29,000ft
Speed:
(Current/Filed)
440kts
Departed: 06-Nov-19 05:12 PM
Arrived: 06-Nov-19 06:00 PM
Distance/Time
Traveled:
215nm/0:48
Distance/Time
To Go:
Arrived

Flight Plot

Page will automatically refresh every two minutes.

Flight plan parsing failed; only flown route is shown


Map Options




Map Legend


Flown Route
Filed Route
Departure Airport
Arrival Airport
Navaid (VOR, NDB)
Fix

Horizontal Profiles

Position Reports

Time Latitude Longitude Heading Altitude Ground
Speed
06-Nov-19 16:11 39.907809 -105.109813 302 5588ft 0kts
06-Nov-19 16:12 39.907809 -105.109813 302 5588ft 0kts
06-Nov-19 16:13 39.907809 -105.109813 302 5588ft 0kts
06-Nov-19 16:14 39.907809 -105.109813 302 5588ft 0kts
06-Nov-19 16:15 39.907809 -105.109813 302 5588ft 0kts
06-Nov-19 16:16 39.907809 -105.109813 302 5588ft 0kts
06-Nov-19 16:17 39.907809 -105.109813 302 5588ft 0kts
06-Nov-19 16:18 39.907809 -105.109813 302 5588ft 0kts
06-Nov-19 16:19 39.907809 -105.109813 302 5588ft 0kts
06-Nov-19 16:20 39.907809 -105.109813 302 5588ft 0kts
06-Nov-19 16:21 39.907809 -105.109813 302 5588ft 0kts
06-Nov-19 16:22 39.907809 -105.109813 302 5588ft 0kts
06-Nov-19 16:23 39.907809 -105.109813 302 5588ft 0kts
06-Nov-19 16:24 39.907809 -105.109813 302 5588ft 0kts
06-Nov-19 16:25 39.907809 -105.109813 302 5588ft 0kts
06-Nov-19 16:26 39.907809 -105.109813 302 5588ft 0kts
06-Nov-19 16:27 39.907809 -105.109813 302 5588ft 0kts
06-Nov-19 16:28 39.907809 -105.109813 302 5588ft 0kts
06-Nov-19 16:29 39.907809 -105.109813 302 5588ft 0kts
06-Nov-19 16:30 39.907809 -105.109813 302 5588ft 0kts
06-Nov-19 16:31 39.907809 -105.109813 302 5588ft 0kts
06-Nov-19 16:32 39.907809 -105.109813 302 5588ft 0kts
06-Nov-19 16:33 39.907809 -105.109813 302 5588ft 0kts
06-Nov-19 16:34 39.907809 -105.109813 302 5588ft 0kts
06-Nov-19 16:35 39.907809 -105.109813 302 5588ft 0kts
06-Nov-19 16:36 39.907809 -105.109813 302 5588ft 0kts
06-Nov-19 16:37 39.907809 -105.109813 302 5588ft 0kts
06-Nov-19 16:38 39.907809 -105.109813 302 5588ft 0kts
06-Nov-19 16:39 39.907809 -105.109813 302 5588ft 0kts
06-Nov-19 16:40 39.907809 -105.109813 302 5588ft 0kts
06-Nov-19 16:41 39.907809 -105.109813 302 5588ft 0kts
06-Nov-19 16:42 39.907809 -105.109813 302 5588ft 0kts
06-Nov-19 16:43 39.907809 -105.109813 302 5588ft 0kts
06-Nov-19 16:44 39.907809 -105.109813 302 5588ft 0kts
06-Nov-19 16:45 39.907809 -105.109813 302 5588ft 0kts
06-Nov-19 16:46 39.907809 -105.109813 302 5588ft 0kts
06-Nov-19 16:47 39.907809 -105.109813 302 5588ft 0kts
06-Nov-19 16:48 39.907809 -105.109813 302 5588ft 0kts
06-Nov-19 16:49 39.907809 -105.109813 302 5588ft 0kts
06-Nov-19 16:50 39.907809 -105.109813 302 5588ft 0kts
06-Nov-19 16:51 39.907809 -105.109813 302 5588ft 0kts
06-Nov-19 16:52 39.907809 -105.109813 302 5588ft 0kts
06-Nov-19 16:53 39.907809 -105.109813 302 5588ft 0kts
06-Nov-19 16:54 39.907809 -105.109813 302 5588ft 0kts
06-Nov-19 16:55 39.907809 -105.109813 302 5588ft 0kts
06-Nov-19 16:56 39.907809 -105.109813 302 5588ft 0kts
06-Nov-19 16:57 39.907809 -105.109813 302 5588ft 0kts
06-Nov-19 16:58 39.907809 -105.109813 302 5588ft 0kts
06-Nov-19 16:59 39.907809 -105.109813 302 5588ft 0kts
06-Nov-19 17:00 39.907865 -105.109956 292 5589ft 3kts
06-Nov-19 17:01 39.908090 -105.111488 262 5596ft 6kts
06-Nov-19 17:02 39.908824 -105.113626 305 5605ft 13kts
06-Nov-19 17:03 39.910462 -105.116708 303 5618ft 11kts
06-Nov-19 17:04 39.912448 -105.120413 300 5631ft 10kts
06-Nov-19 17:05 39.914787 -105.124907 303 5639ft 18kts
06-Nov-19 17:06 39.915992 -105.127365 267 5639ft 0kts
06-Nov-19 17:07 39.915992 -105.127365 267 5639ft 0kts
06-Nov-19 17:08 39.915992 -105.127365 267 5639ft 0kts
06-Nov-19 17:09 39.915992 -105.127365 267 5639ft 0kts
06-Nov-19 17:10 39.915680 -105.127934 226 5642ft 10kts
06-Nov-19 17:11 39.911373 -105.120921 124 5631ft 123kts
06-Nov-19 17:12 39.925286 -105.079988 342 8561ft 228kts
06-Nov-19 17:13 39.965960 -105.114910 310 12049ft 195kts
06-Nov-19 17:14 40.003127 -105.160234 333 14780ft 193kts
06-Nov-19 17:15 40.061315 -105.182621 337 16548ft 250kts
06-Nov-19 17:16 40.136633 -105.212834 338 18078ft 312kts
06-Nov-19 17:17 40.226140 -105.249190 338 19551ft 357kts
06-Nov-19 17:18 40.324473 -105.288087 338 21409ft 373kts
06-Nov-19 17:19 40.423743 -105.324772 338 23142ft 356kts
06-Nov-19 17:20 40.524390 -105.301434 7 23403ft 375kts
06-Nov-19 17:21 40.623488 -105.255978 36 23370ft 400kts
06-Nov-19 17:22 40.638926 -105.113056 93 23404ft 418kts
06-Nov-19 17:23 40.630617 -104.958399 94 24687ft 431kts
06-Nov-19 17:24 40.621713 -104.797244 94 26016ft 448kts
06-Nov-19 17:25 40.612326 -104.631478 95 27347ft 458kts
06-Nov-19 17:27 40.602527 -104.463008 96 28646ft 467kts
06-Nov-19 17:28 40.591757 -104.282634 97 29386ft 510kts
06-Nov-19 17:29 40.580262 -104.094929 97 29394ft 515kts
06-Nov-19 17:30 40.568390 -103.906193 96 29446ft 518kts
06-Nov-19 17:31 40.556238 -103.717814 96 29451ft 515kts
06-Nov-19 17:32 40.543781 -103.529676 96 29455ft 514kts
06-Nov-19 17:33 40.531173 -103.343797 97 29455ft 513kts
06-Nov-19 17:34 40.518098 -103.155449 97 29447ft 510kts
06-Nov-19 17:35 40.504872 -102.969479 97 29463ft 509kts
06-Nov-19 17:36 40.491409 -102.784312 97 29469ft 508kts
06-Nov-19 17:37 40.477598 -102.598522 97 29471ft 509kts
06-Nov-19 17:38 40.463520 -102.413291 97 29475ft 510kts
06-Nov-19 17:39 40.449164 -102.228249 98 28802ft 500kts
06-Nov-19 17:40 40.434852 -102.047863 97 26991ft 493kts
06-Nov-19 17:41 40.420693 -101.872498 96 25181ft 473kts
06-Nov-19 17:42 40.406905 -101.704724 96 24499ft 449kts
06-Nov-19 17:43 40.393530 -101.544331 96 23428ft 446kts
06-Nov-19 17:44 40.389038 -101.385156 77 21484ft 423kts
06-Nov-19 17:45 40.409830 -101.238390 77 19429ft 389kts
06-Nov-19 17:46 40.428785 -101.104555 77 17385ft 360kts
06-Nov-19 17:46 40.443895 -100.997529 77 15712ft 355kts
06-Nov-19 17:48 40.513474 -100.907593 8 14983ft 309kts
06-Nov-19 17:49 40.596935 -100.881634 5 14977ft 309kts
06-Nov-19 17:49 40.667029 -100.860831 5 14976ft 308kts
06-Nov-19 17:51 40.763451 -100.832190 6 14988ft 298kts
06-Nov-19 17:51 40.825183 -100.788873 22 14999ft 299kts
06-Nov-19 17:52 40.887786 -100.740643 20 13627ft 211kts
06-Nov-19 17:54 40.938645 -100.701774 22 10966ft 172kts
06-Nov-19 17:54 40.975989 -100.697422 1 8519ft 162kts
06-Nov-19 17:55 41.016907 -100.696116 6 5560ft 144kts
06-Nov-19 17:56 41.050440 -100.694949 3 3924ft 119kts
06-Nov-19 17:57 41.085795 -100.694129 3 3384ft 135kts
06-Nov-19 17:58 41.123035 -100.693183 3 2787ft 127kts
06-Nov-19 17:59 41.132744 -100.693970 178 2779ft 0kts
06-Nov-19 18:00 41.132744 -100.693970 178 2779ft 0kts
06-Nov-19 18:01 41.131579 -100.695738 327 2779ft 16kts
06-Nov-19 18:02 41.132376 -100.696739 276 2780ft 0kts
06-Nov-19 18:03 41.132376 -100.696740 276 2780ft 0kts

Navigation Log

Ident Type
Flight plan parsing failed, navigation log unavailable